createdAt,value
2023-01-17T00:02:12.040Z,7.22
2023-01-17T00:04:57.469Z,7.16
2023-01-17T00:07:43.756Z,7.10
2023-01-17T00:10:13.430Z,7.05
2023-01-17T00:12:47.212Z,7.00
2023-01-17T00:15:14.336Z,7.00
2023-01-17T00:17:40.977Z,6.98
2023-01-17T00:20:28.759Z,6.98
2023-01-17T00:23:14.104Z,6.99
2023-01-17T00:26:00.200Z,7.04
2023-01-17T00:28:27.462Z,7.07
2023-01-17T00:30:57.277Z,7.09
2023-01-17T00:33:24.673Z,7.10
2023-01-17T00:35:52.968Z,7.12
2023-01-17T00:38:22.130Z,7.14
2023-01-17T00:40:49.281Z,7.15
2023-01-17T00:43:37.635Z,7.15
2023-01-17T00:46:23.361Z,7.19
2023-01-17T00:49:08.908Z,7.22
2023-01-17T00:51:55.284Z,7.26
2023-01-17T00:54:41.432Z,7.28
2023-01-17T00:57:26.735Z,7.29
2023-01-17T01:00:11.883Z,7.31
2023-01-17T01:02:57.453Z,7.24
2023-01-17T01:05:43.110Z,7.13
2023-01-17T01:08:54.652Z,7.08
2023-01-17T01:11:40.049Z,7.04
2023-01-17T01:14:28.557Z,7.02
2023-01-17T01:17:14.027Z,7.01
2023-01-17T01:19:59.231Z,7.04
2023-01-17T01:22:44.521Z,7.08
2023-01-17T01:25:29.875Z,7.13
2023-01-17T01:28:28.226Z,7.17
2023-01-17T01:31:13.754Z,7.17
2023-01-17T01:33:40.445Z,7.15
2023-01-17T01:36:09.008Z,7.16
2023-01-17T01:38:35.720Z,7.19
2023-01-17T01:41:02.895Z,7.24
2023-01-17T01:43:51.079Z,7.29
2023-01-17T01:46:25.698Z,7.34
2023-01-17T01:48:55.816Z,7.36
2023-01-17T01:51:29.232Z,7.33
2023-01-17T01:54:03.721Z,7.29
2023-01-17T01:56:31.953Z,7.24
2023-01-17T01:59:02.858Z,7.21
2023-01-17T02:01:31.088Z,7.22
2023-01-17T02:03:57.939Z,7.19
2023-01-17T02:06:48.006Z,7.21
2023-01-17T02:09:17.099Z,7.19
2023-01-17T02:11:45.980Z,7.20
2023-01-17T02:14:20.341Z,7.22
2023-01-17T02:17:02.980Z,7.24
2023-01-17T02:19:57.895Z,7.27
2023-01-17T02:23:10.320Z,7.32
2023-01-17T02:25:55.765Z,7.38
2023-01-17T02:28:53.438Z,7.43
2023-01-17T02:31:44.756Z,7.47
2023-01-17T02:34:50.224Z,7.41
2023-01-17T02:37:24.796Z,7.41
2023-01-17T02:40:04.648Z,7.42
2023-01-17T02:42:42.676Z,7.42
2023-01-17T02:45:14.680Z,7.42
2023-01-17T02:47:41.268Z,7.44
2023-01-17T02:50:14.855Z,7.45
2023-01-17T02:52:53.795Z,7.47
2023-01-17T02:55:52.713Z,7.47
2023-01-17T02:58:55.080Z,7.46
2023-01-17T03:01:58.796Z,7.44
2023-01-17T03:04:38.214Z,7.46
2023-01-17T03:07:11.823Z,7.47
2023-01-17T03:09:40.796Z,7.48
2023-01-17T03:12:09.634Z,7.49
2023-01-17T03:14:36.281Z,7.49
2023-01-17T03:17:03.041Z,7.45
2023-01-17T03:19:29.989Z,7.37
2023-01-17T03:21:57.131Z,7.30
2023-01-17T03:24:26.055Z,7.25
2023-01-17T03:26:52.754Z,7.22
2023-01-17T03:29:19.688Z,7.22
2023-01-17T03:31:49.326Z,7.21
2023-01-17T03:34:15.924Z,7.18
2023-01-17T03:36:42.551Z,7.15
2023-01-17T03:39:12.041Z,7.15
2023-01-17T03:41:38.797Z,7.12
2023-01-17T03:44:05.880Z,7.10
2023-01-17T03:46:32.917Z,7.08
2023-01-17T03:48:59.553Z,7.03
2023-01-17T03:51:28.960Z,6.97
2023-01-17T03:53:55.527Z,6.90
2023-01-17T03:56:22.241Z,6.86
2023-01-17T03:58:48.930Z,6.82
2023-01-17T04:01:15.922Z,6.79
2023-01-17T04:03:42.627Z,6.76
2023-01-17T04:06:09.255Z,6.74
2023-01-17T04:08:35.900Z,6.71
2023-01-17T04:11:02.626Z,6.67
2023-01-17T04:13:29.270Z,6.61
2023-01-17T04:15:56.173Z,6.56
2023-01-17T04:18:24.601Z,6.54
2023-01-17T04:20:52.649Z,6.52
2023-01-17T04:23:19.408Z,6.49
2023-01-17T04:25:49.164Z,6.49
2023-01-17T04:28:15.832Z,6.49
2023-01-17T04:30:42.448Z,6.50
2023-01-17T04:33:09.099Z,6.50
2023-01-17T04:35:36.101Z,6.48
2023-01-17T04:38:02.809Z,6.45
2023-01-17T04:40:29.689Z,6.43
2023-01-17T04:42:57.976Z,6.42
2023-01-17T04:45:24.648Z,6.41
2023-01-17T04:47:51.365Z,6.40
2023-01-17T04:50:18.339Z,6.41
2023-01-17T04:52:45.073Z,6.41
2023-01-17T04:55:11.771Z,6.43
2023-01-17T04:57:38.483Z,6.45
2023-01-17T05:00:05.634Z,6.44
2023-01-17T05:02:32.461Z,6.45
2023-01-17T05:04:59.114Z,6.45
2023-01-17T05:07:25.835Z,6.46
2023-01-17T05:09:52.468Z,6.47
2023-01-17T05:12:19.072Z,6.50
2023-01-17T05:14:45.686Z,6.53
2023-01-17T05:17:12.333Z,6.55
2023-01-17T05:19:39.070Z,6.58
2023-01-17T05:22:14.993Z,6.59
2023-01-17T05:24:43.514Z,6.58
2023-01-17T05:27:12.255Z,6.57
2023-01-17T05:29:39.666Z,6.55
2023-01-17T05:32:06.967Z,6.52
2023-01-17T05:34:34.326Z,6.48
2023-01-17T05:37:00.911Z,6.44
2023-01-17T05:39:27.661Z,6.39
2023-01-17T05:41:54.283Z,6.36
2023-01-17T05:44:21.081Z,6.32
2023-01-17T05:46:47.721Z,6.31
2023-01-17T05:49:15.478Z,6.28
2023-01-17T05:51:42.772Z,6.27
2023-01-17T05:54:09.384Z,6.26
2023-01-17T05:56:36.061Z,6.22
2023-01-17T05:59:02.770Z,6.22
2023-01-17T06:01:29.516Z,6.21
2023-01-17T06:03:56.152Z,6.20
2023-01-17T06:06:23.077Z,6.19
2023-01-17T06:08:49.741Z,6.19
2023-01-17T06:11:16.480Z,6.18
2023-01-17T06:13:43.117Z,6.18
2023-01-17T06:16:09.990Z,6.17
2023-01-17T06:18:36.633Z,6.17
2023-01-17T06:21:03.254Z,6.16
2023-01-17T06:23:30.223Z,6.14
2023-01-17T06:25:56.788Z,6.12
2023-01-17T06:28:24.238Z,6.11
2023-01-17T06:30:50.928Z,6.10
2023-01-17T06:33:17.685Z,6.09
2023-01-17T06:35:51.791Z,6.07
2023-01-17T06:38:19.079Z,6.10
2023-01-17T06:40:45.850Z,6.13
2023-01-17T06:43:12.755Z,6.15
2023-01-17T06:45:39.522Z,6.16
2023-01-17T06:48:06.495Z,6.15
2023-01-17T06:50:34.158Z,6.15
2023-01-17T06:53:04.294Z,6.13
2023-01-17T06:55:33.792Z,6.12
2023-01-17T06:58:02.699Z,6.11
2023-01-17T07:00:30.876Z,6.10
2023-01-17T07:02:58.140Z,6.08
2023-01-17T07:05:25.018Z,6.05
2023-01-17T07:07:51.759Z,5.88
2023-01-17T07:10:18.523Z,5.63
2023-01-17T07:12:45.818Z,5.49
2023-01-17T07:15:13.264Z,5.43
2023-01-17T07:17:39.958Z,5.42
2023-01-17T07:20:07.382Z,5.41
2023-01-17T07:22:34.207Z,5.40
2023-01-17T07:25:00.862Z,5.37
2023-01-17T07:27:31.025Z,5.34
2023-01-17T07:29:58.103Z,5.36
2023-01-17T07:32:26.776Z,5.38
2023-01-17T07:34:59.303Z,5.41
2023-01-17T07:37:28.750Z,5.45
2023-01-17T07:39:56.459Z,5.50
2023-01-17T07:42:24.297Z,5.58
2023-01-17T07:44:51.226Z,5.65
2023-01-17T07:47:17.917Z,5.71
2023-01-17T07:49:44.640Z,5.77
2023-01-17T07:52:11.747Z,5.83
2023-01-17T07:54:40.400Z,5.88
2023-01-17T07:57:11.937Z,5.92
2023-01-17T07:59:38.556Z,5.99
2023-01-17T08:02:05.360Z,6.06
2023-01-17T08:04:35.276Z,6.12
2023-01-17T08:07:02.077Z,6.17
2023-01-17T08:09:28.906Z,6.18
2023-01-17T08:11:55.527Z,6.18
2023-01-17T08:14:22.068Z,6.16
2023-01-17T08:16:48.678Z,6.14
2023-01-17T08:19:15.347Z,6.12
2023-01-17T08:21:41.942Z,6.08
2023-01-17T08:24:14.995Z,6.07
2023-01-17T08:26:41.763Z,6.08
2023-01-17T08:29:09.161Z,6.09
2023-01-17T08:31:36.065Z,6.09
2023-01-17T08:34:02.761Z,6.10
2023-01-17T08:36:31.369Z,6.15
2023-01-17T08:38:58.899Z,6.19
2023-01-17T08:41:27.830Z,6.24
2023-01-17T08:43:54.595Z,6.30
2023-01-17T08:46:21.253Z,6.35
2023-01-17T08:48:58.763Z,6.40
2023-01-17T08:51:28.980Z,6.46
2023-01-17T08:53:56.583Z,6.49
2023-01-17T08:56:23.818Z,6.48
2023-01-17T08:58:50.431Z,6.50
2023-01-17T09:01:17.399Z,6.48
2023-01-17T09:03:45.646Z,6.49
2023-01-17T09:06:15.013Z,6.52
2023-01-17T09:08:46.946Z,6.53
2023-01-17T09:11:18.079Z,6.57
2023-01-17T09:13:46.914Z,6.56
2023-01-17T09:16:13.609Z,6.54
2023-01-17T09:18:40.297Z,6.53
2023-01-17T09:21:14.130Z,6.50
2023-01-17T09:23:41.658Z,6.45
2023-01-17T09:26:18.184Z,6.42
2023-01-17T09:28:44.858Z,6.46
2023-01-17T09:31:12.232Z,6.51
2023-01-17T09:33:41.803Z,6.50
2023-01-17T09:36:10.260Z,6.47
2023-01-17T09:38:37.921Z,6.44
2023-01-17T09:41:29.297Z,6.43
2023-01-17T09:44:05.029Z,6.40
2023-01-17T09:46:37.445Z,6.43
2023-01-17T09:49:14.953Z,6.45
2023-01-17T09:51:42.723Z,6.48
2023-01-17T09:54:22.121Z,6.53
2023-01-17T09:57:00.723Z,6.56
2023-01-17T09:59:37.878Z,6.59
2023-01-17T10:02:18.495Z,6.58
2023-01-17T10:04:45.401Z,6.57
2023-01-17T10:07:42.020Z,6.57
2023-01-17T10:10:14.709Z,6.60
2023-01-17T10:13:20.140Z,6.62
2023-01-17T10:16:12.589Z,6.57
2023-01-17T10:18:51.477Z,6.52
2023-01-17T10:21:43.256Z,6.48
2023-01-17T10:24:41.480Z,6.46
2023-01-17T10:27:44.774Z,6.45
2023-01-17T10:30:20.067Z,6.49
2023-01-17T10:32:49.683Z,6.52
2023-01-17T10:35:25.750Z,6.53
2023-01-17T10:37:56.900Z,6.53
2023-01-17T10:40:41.017Z,6.53
2023-01-17T10:43:22.748Z,6.52
2023-01-17T10:45:54.528Z,6.51
2023-01-17T10:48:53.627Z,6.51
2023-01-17T10:51:44.849Z,6.51
2023-01-17T10:54:31.411Z,6.55
2023-01-17T10:56:58.883Z,6.58
2023-01-17T10:59:33.872Z,6.60
2023-01-17T11:02:07.404Z,6.61
2023-01-17T11:04:36.867Z,6.60
2023-01-17T11:07:28.306Z,6.58
2023-01-17T11:09:57.686Z,6.57
2023-01-17T11:12:38.327Z,6.58
2023-01-17T11:15:10.867Z,6.60
2023-01-17T11:17:48.952Z,6.61
2023-01-17T11:20:39.940Z,6.63
2023-01-17T11:23:23.125Z,6.65
2023-01-17T11:25:55.713Z,6.66
2023-01-17T11:28:32.058Z,6.64
2023-01-17T11:31:25.980Z,6.65
2023-01-17T11:34:07.698Z,6.63
2023-01-17T11:36:34.538Z,6.66
2023-01-17T11:39:04.307Z,6.67
2023-01-17T11:41:42.312Z,6.70
2023-01-17T11:44:30.447Z,6.68
2023-01-17T11:47:12.596Z,6.66
2023-01-17T11:49:41.008Z,6.67
2023-01-17T11:52:24.281Z,6.66
2023-01-17T11:54:53.596Z,6.64
2023-01-17T11:57:31.435Z,6.63
2023-01-17T12:00:22.492Z,6.63
2023-01-17T12:03:24.683Z,6.66
2023-01-17T12:05:58.533Z,6.66
2023-01-17T12:08:36.838Z,6.69
2023-01-17T12:11:06.137Z,6.74
2023-01-17T12:13:57.847Z,6.75
2023-01-17T12:16:51.074Z,6.76
2023-01-17T12:19:55.289Z,6.73
2023-01-17T12:22:35.325Z,6.73
2023-01-17T12:25:23.098Z,6.71
2023-01-17T12:28:18.823Z,6.72
2023-01-17T12:31:20.680Z,6.74
2023-01-17T12:33:53.506Z,6.70
2023-01-17T12:36:38.470Z,6.72
2023-01-17T12:39:10.193Z,6.76
2023-01-17T12:41:54.384Z,6.78
2023-01-17T12:44:25.182Z,6.81
2023-01-17T12:47:02.309Z,6.84
2023-01-17T12:49:36.450Z,6.89
2023-01-17T12:52:12.959Z,6.95
2023-01-17T12:54:44.315Z,6.98
2023-01-17T12:57:14.352Z,7.01
2023-01-17T13:00:05.657Z,7.04
2023-01-17T13:02:38.916Z,7.10
2023-01-17T13:17:25.412Z,7.24
2023-01-17T13:20:11.065Z,7.26
2023-01-17T13:22:39.932Z,7.30
2023-01-17T13:25:32.743Z,7.31
2023-01-17T13:28:05.132Z,7.35
2023-01-17T13:31:10.706Z,7.36
2023-01-17T13:33:49.666Z,7.40
2023-01-17T13:37:04.822Z,7.47
2023-01-17T13:39:49.642Z,7.50
2023-01-17T13:42:56.198Z,7.48
2023-01-17T13:45:25.970Z,7.52
2023-01-17T13:47:54.006Z,7.54
2023-01-17T13:50:47.440Z,7.56
2023-01-17T13:53:29.318Z,7.61
2023-01-17T13:56:03.971Z,7.62
2023-01-17T13:58:51.755Z,7.56
2023-01-17T14:01:24.800Z,7.45
2023-01-17T14:03:54.814Z,7.41
2023-01-17T14:06:50.018Z,7.38
2023-01-17T14:09:27.817Z,7.42
2023-01-17T14:12:01.038Z,7.46
2023-01-17T14:14:39.892Z,7.48
2023-01-17T14:17:37.245Z,7.51
2023-01-17T14:20:09.807Z,7.53
2023-01-17T14:22:41.787Z,7.53
2023-01-17T14:25:11.190Z,7.53
2023-01-17T14:28:01.806Z,7.58
2023-01-17T14:30:28.474Z,7.64
2023-01-17T14:33:10.552Z,7.62
2023-01-17T14:35:41.044Z,7.56
2023-01-17T14:38:21.856Z,7.52
2023-01-17T14:40:59.620Z,7.45
2023-01-17T14:43:28.797Z,7.38
2023-01-17T14:46:04.218Z,7.37
2023-01-17T14:48:31.376Z,7.38
2023-01-17T14:51:00.215Z,7.42
2023-01-17T14:53:31.606Z,7.47
2023-01-17T14:56:12.577Z,7.50
2023-01-17T14:58:39.764Z,7.52
2023-01-17T15:01:19.486Z,7.53
2023-01-17T15:03:53.534Z,7.52
2023-01-17T15:06:27.887Z,7.50
2023-01-17T15:08:54.695Z,7.51
2023-01-17T15:11:30.992Z,7.51
2023-01-17T15:14:00.505Z,7.52
2023-01-17T15:16:36.786Z,7.53
2023-01-17T15:19:14.099Z,7.54
2023-01-17T15:21:43.201Z,7.49
2023-01-17T15:24:27.615Z,7.42
2023-01-17T15:26:54.749Z,7.34
2023-01-17T15:29:41.982Z,7.25
2023-01-17T15:32:19.192Z,7.09
2023-01-17T15:34:48.631Z,7.04
2023-01-17T15:37:33.604Z,7.07
2023-01-17T15:40:05.785Z,7.11
2023-01-17T15:42:36.469Z,7.15
2023-01-17T15:45:06.297Z,7.13
2023-01-17T15:47:38.698Z,7.12
2023-01-17T15:50:30.659Z,7.14
2023-01-17T15:53:05.623Z,7.19
2023-01-17T15:55:36.026Z,7.23
2023-01-17T15:58:22.972Z,7.27
2023-01-17T16:00:52.911Z,7.30
2023-01-17T16:03:19.571Z,7.28
2023-01-17T16:05:47.157Z,7.25
2023-01-17T16:08:16.698Z,7.26
2023-01-17T16:10:44.413Z,7.29
2023-01-17T16:13:13.684Z,7.31
2023-01-17T16:15:41.996Z,7.33
2023-01-17T16:18:24.652Z,7.36
2023-01-17T16:21:18.692Z,7.38
2023-01-17T16:23:46.052Z,7.39
2023-01-17T16:26:12.725Z,7.39
2023-01-17T16:28:40.685Z,7.39
2023-01-17T16:31:07.411Z,7.37
2023-01-17T16:33:34.734Z,7.39
2023-01-17T16:36:01.382Z,7.40
2023-01-17T16:38:28.053Z,7.41
2023-01-17T16:40:56.142Z,7.43
2023-01-17T16:43:22.819Z,7.43
2023-01-17T16:45:53.121Z,7.36
2023-01-17T16:48:20.898Z,7.30
2023-01-17T16:50:53.262Z,7.25
2023-01-17T16:53:24.666Z,7.20
2023-01-17T16:55:56.100Z,7.20
2023-01-17T16:58:22.888Z,7.20
2023-01-17T17:00:49.593Z,7.18
2023-01-17T17:03:18.469Z,7.18
2023-01-17T17:05:47.261Z,7.17
2023-01-17T17:08:15.483Z,7.17
2023-01-17T17:10:42.222Z,7.16
2023-01-17T17:13:08.874Z,7.17
2023-01-17T17:15:35.582Z,7.18
2023-01-17T17:18:02.595Z,7.19
2023-01-17T17:20:29.208Z,7.21
2023-01-17T17:22:56.416Z,7.25
2023-01-17T17:25:23.187Z,7.25
2023-01-17T17:27:52.877Z,7.27
2023-01-17T17:30:19.880Z,7.27
2023-01-17T17:32:47.655Z,7.27
2023-01-17T17:35:14.891Z,7.27
2023-01-17T17:37:41.558Z,7.27
2023-01-17T17:40:09.044Z,7.28
2023-01-17T17:42:35.716Z,7.28
2023-01-17T17:45:02.613Z,7.29
2023-01-17T17:47:30.670Z,7.30
2023-01-17T17:49:57.341Z,7.31
2023-01-17T17:52:24.011Z,7.32
2023-01-17T17:54:50.708Z,7.32
2023-01-17T17:57:17.318Z,7.32
2023-01-17T17:59:46.462Z,7.32
2023-01-17T18:02:13.176Z,7.30
2023-01-17T18:04:39.952Z,7.26
2023-01-17T18:07:06.660Z,7.20
2023-01-17T18:09:33.332Z,7.15
2023-01-17T18:12:00.986Z,7.11
2023-01-17T18:14:27.677Z,7.08
2023-01-17T18:16:54.479Z,7.07
2023-01-17T18:19:24.736Z,7.01
2023-01-17T18:21:52.361Z,6.97
2023-01-17T18:24:24.011Z,6.95
2023-01-17T18:26:57.118Z,6.92
2023-01-17T18:29:25.374Z,6.92
2023-01-17T18:31:53.155Z,6.93
2023-01-17T18:34:24.017Z,6.97
2023-01-17T18:36:51.669Z,6.99
2023-01-17T18:39:27.357Z,7.00
2023-01-17T18:41:55.275Z,7.00
2023-01-17T18:44:24.001Z,7.02
2023-01-17T18:46:52.992Z,7.04
2023-01-17T18:49:20.069Z,7.05
2023-01-17T18:51:51.286Z,7.07
2023-01-17T18:54:20.043Z,7.02
2023-01-17T18:56:49.819Z,6.98
2023-01-17T18:59:18.651Z,6.92
2023-01-17T19:01:47.343Z,6.82
2023-01-17T19:04:15.637Z,6.74
2023-01-17T19:06:45.013Z,6.71
2023-01-17T19:09:13.617Z,6.73
2023-01-17T19:11:43.210Z,6.77
2023-01-17T19:14:10.277Z,6.80
2023-01-17T19:16:40.313Z,6.85
2023-01-17T19:19:10.078Z,6.92
2023-01-17T19:21:37.203Z,6.93
2023-01-17T19:24:04.603Z,6.94
2023-01-17T19:26:32.407Z,6.93
2023-01-17T19:29:00.017Z,6.91
2023-01-17T19:31:29.271Z,6.90
2023-01-17T19:34:00.939Z,6.91
2023-01-17T19:36:32.041Z,6.93
2023-01-17T19:39:05.395Z,6.95
2023-01-17T19:41:35.699Z,6.98
2023-01-17T19:44:05.199Z,6.99
2023-01-17T19:46:32.615Z,7.00
2023-01-17T19:48:59.786Z,7.03
2023-01-17T19:51:26.967Z,7.04
2023-01-17T19:53:54.137Z,7.07
2023-01-17T19:56:25.878Z,7.09
2023-01-17T19:58:53.635Z,7.12
2023-01-17T20:01:28.391Z,7.13
2023-01-17T20:03:58.018Z,7.15
2023-01-17T20:06:29.232Z,7.13
2023-01-17T20:08:57.277Z,7.12
2023-01-17T20:11:26.157Z,7.12
2023-01-17T20:13:55.846Z,7.13
2023-01-17T20:16:24.123Z,7.14
2023-01-17T20:18:50.998Z,7.14
2023-01-17T20:21:27.415Z,7.13
2023-01-17T20:23:57.240Z,7.16
2023-01-17T20:26:31.153Z,7.17
2023-01-17T20:28:59.232Z,7.16
2023-01-17T20:31:27.976Z,7.13
2023-01-17T20:33:57.553Z,7.14
2023-01-17T20:36:29.234Z,7.16
2023-01-17T20:38:57.296Z,7.17
2023-01-17T20:41:28.740Z,7.18
2023-01-17T20:43:58.273Z,7.18
2023-01-17T20:46:28.021Z,7.17
2023-01-17T20:48:59.810Z,7.10
2023-01-17T20:51:28.525Z,7.04
2023-01-17T20:54:00.898Z,7.02
2023-01-17T20:56:30.017Z,7.03
2023-01-17T20:58:57.973Z,7.04
2023-01-17T21:01:24.823Z,7.00
2023-01-17T21:03:54.004Z,6.92
2023-01-17T21:06:22.813Z,6.90
2023-01-17T21:08:50.293Z,6.84
2023-01-17T21:11:22.673Z,6.83
2023-01-17T21:13:49.985Z,6.82
2023-01-17T21:16:19.124Z,6.77
2023-01-17T21:18:47.935Z,6.70
2023-01-17T21:21:18.769Z,6.67
2023-01-17T21:23:45.834Z,6.65
2023-01-17T21:26:14.735Z,6.63
2023-01-17T21:28:43.320Z,6.65
2023-01-17T21:31:24.892Z,6.68
2023-01-17T21:34:00.292Z,6.71
2023-01-17T21:36:29.447Z,6.68
2023-01-17T21:38:58.276Z,6.65
2023-01-17T21:41:28.747Z,6.69
2023-01-17T21:44:08.689Z,6.68
2023-01-17T21:46:38.454Z,6.65
2023-01-17T21:49:05.709Z,6.64
2023-01-17T21:51:51.253Z,6.67
2023-01-17T21:54:44.605Z,6.68
2023-01-17T21:57:32.313Z,6.69
2023-01-17T22:00:00.103Z,6.70
2023-01-17T22:02:26.977Z,6.72
2023-01-17T22:04:54.823Z,6.74
2023-01-17T22:07:22.026Z,6.77
2023-01-17T22:09:50.788Z,6.79
2023-01-17T22:12:20.192Z,6.81
2023-01-17T22:14:46.894Z,6.83
2023-01-17T22:17:13.547Z,6.85
2023-01-17T22:19:40.236Z,6.85
2023-01-17T22:22:06.991Z,6.85
2023-01-17T22:24:36.416Z,6.87
2023-01-17T22:27:03.508Z,6.89
2023-01-17T22:29:32.424Z,6.92
2023-01-17T22:31:58.997Z,6.94
2023-01-17T22:34:25.761Z,6.86
2023-01-17T22:36:52.416Z,6.63
2023-01-17T22:39:19.017Z,6.44
2023-01-17T22:41:45.686Z,6.37
2023-01-17T22:44:12.678Z,6.25
2023-01-17T22:46:40.502Z,6.13
2023-01-17T22:49:13.344Z,6.07
2023-01-17T22:51:39.986Z,6.04
2023-01-17T22:54:06.706Z,6.04
2023-01-17T22:56:34.009Z,6.08
2023-01-17T22:59:01.962Z,6.14
2023-01-17T23:01:31.172Z,6.20
2023-01-17T23:04:03.771Z,6.28
2023-01-17T23:06:35.447Z,6.36
2023-01-17T23:09:05.848Z,6.42
2023-01-17T23:11:40.799Z,6.46
2023-01-17T23:14:24.522Z,6.53
2023-01-17T23:17:14.400Z,6.57
2023-01-17T23:19:49.503Z,6.57
2023-01-17T23:22:26.923Z,6.57
2023-01-17T23:24:56.928Z,6.58
2023-01-17T23:28:00.226Z,6.60
2023-01-17T23:30:35.784Z,6.64
2023-01-17T23:33:05.879Z,6.68
2023-01-17T23:35:36.762Z,6.71
2023-01-17T23:38:23.703Z,6.75
2023-01-17T23:41:10.181Z,6.77
2023-01-17T23:43:37.596Z,6.77
2023-01-17T23:46:05.197Z,6.75
2023-01-17T23:48:31.846Z,6.69
2023-01-17T23:51:01.082Z,6.64
2023-01-17T23:53:28.122Z,6.61
2023-01-17T23:55:56.855Z,6.53
2023-01-17T23:58:26.263Z,6.42
